Flight Track Log - Related Links

Times and Time Zones

All times are in EDT time to prevent confusion due to time zone crossing. See the THY1993 flight status page for this flight to view local times or setup timezone preferences in your user account.

Time Position Orientation Groundspeed Altitude Reporting Facility
EDT Latitude Longitude Course Direction KTS MPH feet Rate Location/Type
Fri 01:39:00 AM 42.4678 26.4824 311° West  Level Estimated
Fri 01:40:00 AM 42.5411 26.3626 310° West  Level Estimated
Fri 01:41:00 AM 42.6142 26.2425 310° West  Level Estimated
Fri 01:42:00 AM 42.6873 26.1221 310° West  Level Estimated
Fri 01:43:00 AM 42.7602 26.0015 309° West  Level Estimated
Fri 01:44:00 AM 42.8329 25.8805 309° West  Level Estimated
Fri 01:45:00 AM 42.9056 25.7593 309° West  Level Estimated
Fri 01:46:00 AM 42.9781 25.6378 309° West  Level Estimated
Fri 01:47:00 AM 43.0505 25.5160 309° West  Level Estimated
Fri 01:48:00 AM 43.1227 25.3939 309° West  Level Estimated
Fri 01:49:00 AM 43.1949 25.2715 309° West  Level Estimated
Fri 01:50:00 AM 43.2669 25.1488 309° West  Level Estimated
Fri 01:51:00 AM 43.3387 25.0259 309° West  Level Estimated
Fri 01:52:00 AM 43.4105 24.9026 309° West  Level Estimated
Fri 01:53:00 AM 43.4821 24.7791 309° West  Level Estimated
Fri 01:54:00 AM 43.5536 24.6552 309° West  Level Estimated
Fri 01:55:00 AM 43.6249 24.5311 308° West  Level Estimated
Fri 01:56:00 AM 43.6961 24.4067 308° West  Level Estimated
Fri 01:57:00 AM 43.7672 24.2819 308° West  Level Estimated
Fri 01:58:00 AM 43.8381 24.1569 308° West  Level Estimated
Fri 01:59:00 AM 43.9089 24.0316 308° West  Level Estimated
Fri 02:00:00 AM 43.9795 23.9060 308° West  Level Estimated
Fri 02:01:00 AM 44.0501 23.7801 308° West  Level Estimated
Fri 02:02:00 AM 44.1204 23.6539 308° West  Level Estimated
Fri 02:03:00 AM 44.1907 23.5274 308° West  Level Estimated
Fri 02:04:00 AM 44.2608 23.4006 308° West  Level Estimated
Fri 02:05:00 AM 44.3307 23.2734 308° West  Level Estimated
Fri 02:06:00 AM 44.4006 23.1460 308° West  Level Estimated
Fri 02:07:00 AM 44.4702 23.0183 307° West  Level Estimated
Fri 02:08:00 AM 44.5398 22.8902 307° West  Level Estimated
Fri 02:09:00 AM 44.6092 22.7619 307° West  Level Estimated
Fri 02:10:00 AM 44.6784 22.6333 307° West  Level Estimated
Fri 02:11:00 AM 44.7475 22.5043 307° West  Level Estimated
Fri 02:12:00 AM 44.8165 22.3751 307° West  Level Estimated
Fri 02:13:00 AM 44.8853 22.2455 307° West  Level Estimated
Fri 02:14:00 AM 44.9539 22.1156 307° West  Level Estimated
Fri 02:15:00 AM 45.0225 21.9854 307° West  Level Estimated
Fri 02:16:00 AM 45.0908 21.8549 307° West  Level Estimated
Fri 02:17:00 AM 45.1590 21.7241 307° West  Level Estimated
Fri 02:18:00 AM 45.2271 21.5930 306° West  Level Estimated
Fri 02:19:00 AM 45.2950 21.4615 306° West  Level Estimated
Fri 02:20:00 AM 45.3628 21.3298 306° West  Level Estimated
Fri 02:21:00 AM 45.4304 21.1977 306° West  Level Estimated
Fri 02:22:00 AM 45.4979 21.0653 306° West  Level Estimated
Fri 02:23:00 AM 45.5652 20.9326 306° West  Level Estimated
Fri 02:24:00 AM 45.6323 20.7996 306° West  Level Estimated
Fri 02:25:00 AM 45.6993 20.6663 306° West  Level Estimated
Fri 02:26:00 AM 45.7662 20.5326 306° West  Level Estimated
Fri 02:27:00 AM 45.8329 20.3986 306° West  Level Estimated
Fri 02:28:00 AM 45.8994 20.2643 305° West  Level Estimated
Fri 02:29:00 AM 45.9658 20.1297 305° West  Level Estimated
Fri 02:30:00 AM 46.0320 19.9947 305° West  Level Estimated
Fri 02:31:00 AM 46.0980 19.8595 305° West  Level Estimated
Fri 02:32:00 AM 46.1640 19.7239 305° West  Level Estimated
Fri 02:33:00 AM 46.2297 19.5880 305° West  Level Estimated
Fri 02:34:00 AM 46.2953 19.4517 305° West  Level Estimated
Fri 02:35:00 AM 46.3607 19.3152 305° West  Level Estimated
Fri 02:36:00 AM 46.4259 19.1783 305° West  Level Estimated
Fri 02:37:00 AM 46.4910 19.0410 305° West  Level Estimated
Fri 02:38:00 AM 46.5559 18.9035 304° West  Level Estimated
Fri 02:39:00 AM 46.6207 18.7656 304° West  Level Estimated
Fri 02:40:00 AM 46.6853 18.6274 304° West  Level Estimated
Fri 02:41:00 AM 46.7497 18.4888 304° West  Level Estimated
Fri 02:42:00 AM 46.8139 18.3500 304° West  Level Estimated
Fri 02:43:00 AM 46.8780 18.2108 304° West  Level Estimated
Fri 02:44:00 AM 46.9420 18.0712 304° West  Level Estimated
Fri 02:45:00 AM 47.0057 17.9314 304° West  Level Estimated
Fri 02:46:00 AM 47.0693 17.7911 304° West  Level Estimated
Fri 02:47:00 AM 47.1327 17.6506 304° West  Level Estimated
Fri 02:48:00 AM 47.1959 17.5097 303° West  Level Estimated
Fri 02:49:00 AM 47.2590 17.3685 303° West  Level Estimated
Fri 02:50:00 AM 47.3219 17.2270 303° West  Level Estimated
Fri 02:51:00 AM 47.3846 17.0851 303° West  Level Estimated
Fri 02:52:00 AM 47.4471 16.9429 303° West  Level Estimated
Fri 02:53:00 AM 47.5095 16.8003 303° West  Level Estimated
Fri 02:54:00 AM 47.5717 16.6574 303° West  Level Estimated
Fri 02:55:00 AM 47.6337 16.5142 303° West  Level Estimated
Fri 02:56:00 AM 47.6955 16.3706 303° West  Level Estimated
Fri 02:57:00 AM 47.7571 16.2267 303° West  Level Estimated
Fri 02:58:00 AM 47.8186 16.0824 302° West  Level Estimated
Fri 02:59:00 AM 47.8799 15.9378 302° West  Level Estimated
Fri 03:00:00 AM 47.9410 15.7929 302° West  Level Estimated
Fri 03:01:00 AM 48.0019 15.6476 302° West  Level Estimated
Fri 03:02:00 AM 48.0626 15.5020 302° West  Level Estimated
Fri 03:03:00 AM 48.1232 15.3560 302° West  Level Estimated
Fri 03:04:00 AM 48.1836 15.2097 302° West  Level Estimated
Fri 03:05:00 AM 48.2437 15.0630 302° West  Level Estimated
Fri 03:06:00 AM 48.3037 14.9160 302° West  Level Estimated
Fri 03:07:00 AM 48.3635 14.7687 301° West  Level Estimated
Fri 03:08:00 AM 48.4232 14.6210 301° West  Level Estimated
Fri 03:09:00 AM 48.4826 14.4729 301° West  Level Estimated
Fri 03:10:00 AM 48.5418 14.3245 301° West  Level Estimated
Fri 03:11:00 AM 48.6009 14.1758 301° West  Level Estimated
Fri 03:12:00 AM 48.6597 14.0267 301° West  Level Estimated
Fri 03:13:00 AM 48.7184 13.8773 301° West  Level Estimated
Fri 03:14:00 AM 48.7769 13.7275 301° West  Level Estimated
Fri 03:15:00 AM 48.8351 13.5774 301° West  Level Estimated
Fri 03:16:00 AM 48.8932 13.4269 300° West  Level Estimated
Fri 03:17:00 AM 48.9511 13.2761 300° West  Level Estimated
Fri 03:18:00 AM 49.0088 13.1249 300° West  Level Estimated
Fri 03:19:00 AM 49.0663 12.9733 300° West  Level Estimated
Fri 03:20:00 AM 49.1236 12.8215 300° West  Level Estimated
Fri 03:21:00 AM 49.1806 12.6692 300° West  Level Estimated
Fri 03:22:00 AM 49.2375 12.5167 300° West  Level Estimated
Fri 03:23:00 AM 49.2942 12.3637 300° West  Level Estimated
Fri 03:24:00 AM 49.3507 12.2105 300° West  Level Estimated
Fri 03:25:00 AM 49.4070 12.0568 299° West  Level Estimated
Fri 03:26:00 AM 49.4631 11.9028 299° West  Level Estimated
Fri 03:27:00 AM 49.5189 11.7485 299° West  Level Estimated
Fri 03:28:00 AM 49.5746 11.5938 299° West  Level Estimated
Fri 03:29:00 AM 49.6301 11.4388 299° West  Level Estimated
Fri 03:30:00 AM 49.6853 11.2834 299° West  Level Estimated
Fri 03:31:00 AM 49.7403 11.1276 299° West  Level Estimated
Fri 03:32:00 AM 49.7952 10.9715 299° West  Level Estimated
Fri 03:33:00 AM 49.8498 10.8151 298° West  Level Estimated
Fri 03:34:00 AM 49.9042 10.6582 298° West  Level Estimated
Fri 03:35:00 AM 49.9584 10.5011 298° West  Level Estimated
Fri 03:36:00 AM 50.0124 10.3436 298° West  Level Estimated
Fri 03:37:00 AM 50.0662 10.1857 298° West  Level Estimated
Fri 03:38:00 AM 50.1197 10.0275 298° West  Level Estimated
Fri 03:39:00 AM 50.1731 9.8689 298° West  Level Estimated
Fri 03:40:00 AM 50.2262 9.7100 298° West  Level Estimated
Fri 03:41:00 AM 50.2791 9.5507 298° West  Level Estimated
Fri 03:42:00 AM 50.3318 9.3910 297° West  Level Estimated
Fri 03:43:00 AM 50.3843 9.2310 297° West  Level Estimated
Fri 03:44:00 AM 50.4365 9.0707 297° West  Level Estimated
Fri 03:45:00 AM 50.4885 8.9100 297° West  Level Estimated
Fri 03:46:00 AM 50.5404 8.7490 297° West  Level Estimated
Fri 03:47:00 AM 50.5919 8.5875 297° West  Level Estimated
Fri 03:48:00 AM 50.6433 8.4258 297° West  Level Estimated
Fri 03:49:00 AM 50.6945 8.2637 297° West  Level Estimated
Fri 03:50:00 AM 50.7454 8.1012 296° West  Level Estimated
Fri 03:51:00 AM 50.7961 7.9384 296° West  Level Estimated
Fri 03:52:00 AM 50.8465 7.7752 296° West  Level Estimated
Fri 03:53:00 AM 50.8968 7.6117 296° West  Level Estimated
Fri 03:54:00 AM 50.9468 7.4478 296° West  Level Estimated
Fri 03:55:00 AM 50.9966 7.2836 296° West  Level Estimated
Fri 03:56:00 AM 51.0461 7.1190 296° West  Level Estimated
Fri 03:57:00 AM 51.0954 6.9541 296° West  Level Estimated
Fri 03:58:00 AM 51.1445 6.7888 295° West  Level Estimated
Fri 03:59:00 AM 51.1933 6.6232 295° West  Level Estimated
Fri 04:00:00 AM 51.2419 6.4572 295° West  Level Estimated
Fri 04:01:00 AM 51.2903 6.2908 295° West  Level Estimated
Fri 04:02:00 AM 51.3385 6.1241 295° West  Level Estimated
Fri 04:03:00 AM 51.3864 5.9571 295° West  Level Estimated
Fri 04:04:00 AM 51.4340 5.7897 295° West  Level Estimated
Fri 04:05:00 AM 51.4815 5.6220 294° West  Level Estimated
Fri 04:06:00 AM 51.5286 5.4539 294° West  Level Estimated
Fri 04:07:00 AM 51.5756 5.2855 294° West  Level Estimated
Fri 04:08:00 AM 51.6223 5.1167 294° West  Level Estimated
Fri 04:09:00 AM 51.6688 4.9476 294° West  Level Estimated
Fri 04:10:00 AM 51.7150 4.7781 294° West  Level Estimated
Fri 04:11:00 AM 51.7610 4.6083 294° West  Level Estimated
Fri 04:12:00 AM 51.8067 4.4381 294° West  Level Estimated
Fri 04:13:00 AM 51.8522 4.2676 293° West  Level Estimated
Fri 04:14:00 AM 51.8974 4.0968 293° West  Level Estimated
Fri 04:15:00 AM 51.9424 3.9256 293° West  Level Estimated
Fri 04:16:00 AM 51.9871 3.7541 293° West  Level Estimated
Fri 04:17:00 AM 52.0316 3.5822 293° West  Level Estimated
Fri 04:18:00 AM 52.0759 3.4100 293° West  Level Estimated
Fri 04:19:00 AM 52.1199 3.2374 293° West  Level Estimated
Fri 04:20:00 AM 52.1636 3.0645 292° West  Level Estimated
Fri 04:21:00 AM 52.2071 2.8913 292° West  Level Estimated
Fri 04:22:00 AM 52.2503 2.7177 292° West  Level Estimated
Fri 04:23:00 AM 52.2933 2.5438 292° West  Level Estimated
Fri 04:24:00 AM 52.3360 2.3695 292° West  Level Estimated
Fri 04:25:00 AM 52.3785 2.1949 292° West  Level Estimated
Fri 04:26:00 AM 52.4207 2.0200 292° West  Level Estimated
Fri 04:27:00 AM 52.4626 1.8447 292° West  Level Estimated
Fri 04:28:00 AM 52.5043 1.6691 291° West  Level Estimated
Fri 04:29:00 AM 52.5457 1.4932 291° West  Level Estimated
Fri 04:30:00 AM 52.5869 1.3170 291° West  Level Estimated
Fri 04:31:00 AM 52.6278 1.1404 291° West  Level Estimated
Fri 04:32:00 AM 52.6684 0.9635 291° West  Level Estimated
Fri 04:33:00 AM 52.7088 0.7862 291° West  Level Estimated
Fri 04:34:00 AM 52.7489 0.6087 291° West  Level Estimated
Fri 04:35:00 AM 52.7887 0.4308 290° West  Level Estimated
Fri 04:36:00 AM 52.8283 0.2526 290° West  Level Estimated
Fri 04:37:00 AM 52.8676 0.0740 290° West  Level Estimated
Fri 04:38:00 AM 52.9067 -0.1049 290° West  Level Estimated
Fri 04:39:00 AM 52.9454 -0.2840 290° West  Level Estimated
Fri 04:40:00 AM 52.9839 -0.4636 290° West  Level Estimated
Fri 04:41:00 AM 53.0222 -0.6434 290° West  Level Estimated
Fri 04:42:00 AM 53.0601 -0.8235 289° West  Level Estimated
Fri 04:43:00 AM 53.0978 -1.0040 289° West  Level Estimated
Fri 04:44:00 AM 53.1352 -1.1848 289° West  Level Estimated
Fri 04:45:00 AM 53.1724 -1.3658 289° West  Level Estimated
Fri 04:46:00 AM 53.2092 -1.5473 289° West  Level Estimated
Fri 04:47:00 AM 53.2458 -1.7290 289° West  Level Estimated
Fri 04:48:00 AM 53.2821 -1.9110 289° West  Level Estimated
Fri 04:49:00 AM 53.3182 -2.0933 288° West  Level Estimated
Fri 04:50:00 AM 53.3537 -2.2750 288° West  Level Estimated
Fri 04:51:00 AM 53.3537 -2.2750 North  Level Estimated
Fri 04:52:00 AM 53.3537 -2.2750 North  Level Estimated
Fri 04:53:00 AM 53.3537 -2.2750 North  Level Estimated
Fri 04:54:00 AM 53.3537 -2.2750 North  Level Estimated
Fri 04:55:00 AM 53.3537 -2.2750 North  Level Estimated
Fri 04:56:00 AM 53.3537 -2.2750 North  Level Estimated
Fri 04:57:00 AM 53.3537 -2.2750 North  Level Estimated
Fri 04:58:00 AM 53.3537 -2.2750 North  Level Estimated
Fri 04:59:00 AM 53.3537 -2.2750 North  Level Estimated
Fri 05:00:00 AM 53.3537 -2.2750 North  Level Estimated
Fri 05:01:00 AM 53.3537 -2.2750 North  Level Estimated
Fri 05:02:00 AM 53.3537 -2.2750 North  Level Estimated
Fri 05:03:00 AM 53.3537 -2.2750 North  Level Estimated
Fri 05:04:00 AM 53.3537 -2.2750 North  Level Estimated
Fri 05:05:00 AM 53.3537 -2.2750 North  Level Estimated
Fri 05:06:00 AM 53.3537 -2.2750 North  Level Estimated

Login

Don't have an account? Register now (free) for customized features, flight alerts, and more!